Time;durP1;ratioP1;P1;durP2;ratioP2;P2;SDS_P1;SDS_P2;PMS_P1;PMS_P2;Temp;Humidity;BMP_temperature;BMP_pressure;BME280_temperature;BME280_humidity;BME280_pressure;Samples;Min_cycle;Max_cycle;Signal;HPM_P1;HPM_P2
2022/07/12 00:00:51;;;;;;;2.13;1.20;;;;;;;16.45;70.34;102320.75;5056654;28;20391;-74
2022/07/12 00:03:16;;;;;;;1.55;1.13;;;;;;;16.42;70.73;102320.81;5058362;28;20410;-74
2022/07/12 00:05:42;;;;;;;2.60;1.40;;;;;;;16.37;71.42;102326.22;5058062;28;20474;-74
2022/07/12 00:08:07;;;;;;;2.08;1.60;;;;;;;16.34;71.63;102318.41;5055816;28;20455;-74
2022/07/12 00:10:32;;;;;;;2.72;1.48;;;;;;;16.30;71.65;102320.25;5061270;28;20059;-74
2022/07/12 00:12:58;;;;;;;2.83;1.70;;;;;;;16.27;71.81;102314.19;5058074;28;20024;-74
2022/07/12 00:15:23;;;;;;;2.40;1.70;;;;;;;16.28;71.88;102311.56;5062854;28;20025;-74
2022/07/12 00:17:49;;;;;;;3.10;1.90;;;;;;;16.24;72.26;102308.13;5058365;28;20126;-74
2022/07/12 00:20:14;;;;;;;3.85;2.03;;;;;;;16.18;71.88;102313.56;5061013;28;20064;-74
2022/07/12 00:22:39;;;;;;;5.35;2.40;;;;;;;16.15;72.13;102315.38;5061449;28;20521;-74
2022/07/12 00:25:05;;;;;;;2.88;1.70;;;;;;;16.12;71.95;102320.72;5064776;28;20029;-74
2022/07/12 00:27:30;;;;;;;3.53;2.35;;;;;;;16.09;72.60;102303.28;5057736;28;20028;-74
2022/07/12 00:29:56;;;;;;;3.13;2.22;;;;;;;16.07;72.45;102310.31;5066660;28;20048;-74
2022/07/12 00:32:21;;;;;;;2.83;2.28;;;;;;;16.05;72.83;102309.53;5059564;28;20032;-74
2022/07/12 00:34:46;;;;;;;2.95;2.25;;;;;;;16.03;72.62;102309.53;5060213;28;20538;-74
2022/07/12 00:37:12;;;;;;;2.88;1.80;;;;;;;16.01;72.49;102302.63;5065715;28;20112;-74
2022/07/12 00:39:37;;;;;;;2.17;1.77;;;;;;;16.00;72.84;102306.16;5062145;28;20082;-74
2022/07/12 00:42:03;;;;;;;2.85;1.65;;;;;;;15.98;72.63;102311.41;5071717;28;20329;-74
2022/07/12 00:44:30;;;;;;;2.50;1.80;;;;;;;15.97;72.46;102298.34;5061473;28;20459;-74
2022/07/12 00:46:56;;;;;;;2.28;1.60;;;;;;;15.94;72.74;102299.28;5059700;28;20029;-74
2022/07/12 00:49:23;;;;;;;2.63;1.77;;;;;;;15.91;72.62;102300.22;5066654;28;20033;-74
2022/07/12 00:51:50;;;;;;;2.75;2.20;;;;;;;15.89;72.76;102296.75;5057026;28;20076;-74
2022/07/12 00:54:16;;;;;;;3.63;2.20;;;;;;;15.87;73.10;102295.97;5064524;28;20031;-74
2022/07/12 00:56:42;;;;;;;2.25;2.05;;;;;;;15.82;73.07;102286.41;5059267;28;20020;-74
2022/07/12 00:59:07;;;;;;;2.22;2.00;;;;;;;15.82;73.06;102289.91;5064190;28;20053;-74
2022/07/12 01:01:33;;;;;;;2.83;1.88;;;;;;;15.75;72.64;102293.59;5063492;28;20024;-74
2022/07/12 01:03:59;;;;;;;2.40;1.90;;;;;;;15.71;72.33;102292.81;5060054;28;20107;-74
2022/07/12 01:06:25;;;;;;;2.17;1.90;;;;;;;15.68;72.48;102292.88;5059731;28;20209;-74
2022/07/12 01:08:50;;;;;;;2.20;2.00;;;;;;;15.67;72.83;102296.38;5049236;28;20043;-74
2022/07/12 01:11:16;;;;;;;1.88;1.20;;;;;;;15.61;70.70;102297.41;5064953;28;20020;-74
2022/07/12 01:13:42;;;;;;;1.80;1.33;;;;;;;15.61;72.44;102292.16;5061233;28;20028;-74
2022/07/12 01:16:08;;;;;;;2.65;1.15;;;;;;;15.57;72.48;102295.75;5063088;28;20023;-74
2022/07/12 01:18:34;;;;;;;0.70;0.70;;;;;;;15.54;72.83;102300.22;5060437;28;20068;-74
2022/07/12 01:21:05;;;;;;;0.60;0.50;;;;;;;15.51;72.46;102301.16;5063336;28;20115;-74
2022/07/12 01:23:31;;;;;;;0.50;0.50;;;;;;;15.51;72.79;102300.28;5060969;28;20028;-74
2022/07/12 01:25:56;;;;;;;0.70;0.70;;;;;;;15.47;73.02;102299.50;5062207;28;20047;-74
2022/07/12 01:28:21;;;;;;;0.80;0.80;;;;;;;15.44;73.37;102304.81;5065273;28;20028;-74
2022/07/12 01:30:47;;;;;;;1.55;0.90;;;;;;;15.40;73.20;102313.63;5068719;28;20040;-74
2022/07/12 01:33:15;;;;;;;2.15;1.00;;;;;;;15.40;72.70;102314.50;5045212;28;20024;-74
2022/07/12 01:35:40;;;;;;;0.80;0.80;;;;;;;15.39;72.06;102318.03;5045486;28;20079;-74
2022/07/12 01:38:06;;;;;;;0.95;0.85;;;;;;;15.36;72.51;102331.19;5063911;28;20075;-74
2022/07/12 01:40:31;;;;;;;1.25;0.90;;;;;;;15.32;73.44;102332.16;5057906;28;20053;-74
2022/07/12 01:42:57;;;;;;;1.00;0.90;;;;;;;15.26;74.33;102333.16;5061455;28;20109;-74
2022/07/12 01:45:22;;;;;;;1.10;1.00;;;;;;;15.24;74.85;102334.94;5062043;28;20036;-74
2022/07/12 01:47:48;;;;;;;0.70;0.70;;;;;;;15.21;73.58;102340.25;5062005;28;20035;-74
2022/07/12 01:50:15;;;;;;;0.60;0.60;;;;;;;15.19;73.09;102334.19;5062897;28;20031;-74
2022/07/12 01:52:41;;;;;;;0.93;0.90;;;;;;;15.20;73.37;102335.91;5067370;28;20075;-74
2022/07/12 01:55:08;;;;;;;0.80;0.80;;;;;;;15.20;73.14;102335.06;5057997;28;20797;-73
2022/07/12 01:57:34;;;;;;;1.13;1.02;;;;;;;15.16;72.42;102332.47;5058978;28;20467;-74
2022/07/12 02:00:05;;;;;;;1.55;1.00;;;;;;;15.13;71.84;102331.69;5059584;28;20024;-74
2022/07/12 02:02:31;;;;;;;1.83;1.23;;;;;;;15.11;72.51;102328.25;5059265;28;20033;-73
2022/07/12 02:04:58;;;;;;;1.10;1.00;;;;;;;15.07;73.17;102329.19;5059545;28;20051;-74
2022/07/12 02:07:24;;;;;;;2.78;0.90;;;;;;;15.05;72.14;102323.13;5061914;28;20036;-74
2022/07/12 02:09:50;;;;;;;1.25;1.15;;;;;;;15.02;71.95;102319.69;5057707;28;20516;-74
2022/07/12 02:12:15;;;;;;;1.50;1.40;;;;;;;14.99;72.56;102317.13;5063390;28;20021;-74
2022/07/12 02:14:40;;;;;;;2.08;1.88;;;;;;;15.00;73.87;102315.34;5059741;28;20060;-74
2022/07/12 02:17:05;;;;;;;2.45;1.90;;;;;;;14.98;73.89;102307.53;5062517;28;20040;-74
2022/07/12 02:19:31;;;;;;;1.60;1.50;;;;;;;14.92;73.77;102309.44;5059009;28;20031;-73
2022/07/12 02:21:56;;;;;;;1.85;1.30;;;;;;;14.85;73.61;102301.69;5064327;28;20016;-74
2022/07/12 02:24:21;;;;;;;1.67;1.20;;;;;;;14.82;73.11;102306.13;5060341;28;20032;-74
2022/07/12 02:26:47;;;;;;;1.67;1.25;;;;;;;14.79;73.41;102301.78;5060363;28;20040;-74
2022/07/12 02:29:12;;;;;;;1.45;1.20;;;;;;;14.77;73.80;102302.72;5057908;28;20021;-74
2022/07/12 02:31:38;;;;;;;2.15;1.35;;;;;;;14.71;73.41;102308.94;5058206;28;20031;-74
2022/07/12 02:34:04;;;;;;;3.05;1.50;;;;;;;14.70;73.85;102310.69;5059338;28;20036;-74
2022/07/12 02:36:29;;;;;;;2.25;1.60;;;;;;;14.69;74.75;102310.72;5063273;28;20395;-74
2022/07/12 02:38:55;;;;;;;2.65;1.58;;;;;;;14.66;73.86;102309.03;5056369;28;20097;-73
2022/07/12 02:41:21;;;;;;;4.95;1.70;;;;;;;14.64;74.47;102305.56;5058187;28;20045;-74
2022/07/12 02:43:46;;;;;;;2.13;1.50;;;;;;;14.64;74.09;102304.69;5061322;28;20444;-74
2022/07/12 02:46:13;;;;;;;2.55;1.50;;;;;;;14.63;73.93;102305.56;5059278;28;20024;-74
2022/07/12 02:48:39;;;;;;;2.63;1.75;;;;;;;14.58;74.27;102303.03;5059220;28;20025;-74
2022/07/12 02:51:06;;;;;;;3.00;1.90;;;;;;;14.58;74.91;102308.28;5067667;28;20066;-74
2022/07/12 02:53:33;;;;;;;2.40;1.80;;;;;;;14.57;74.84;102310.06;5059041;28;20044;-74
2022/07/12 02:55:59;;;;;;;2.33;1.80;;;;;;;14.60;73.85;102314.38;5062747;28;20016;-74
2022/07/12 02:58:24;;;;;;;2.13;1.70;;;;;;;14.58;73.58;102316.16;5065321;28;20379;-74
2022/07/12 03:00:49;;;;;;;1.70;1.60;;;;;;;14.54;73.37;102315.34;5060375;28;20103;-74
2022/07/12 03:03:15;;;;;;;1.70;1.60;;;;;;;14.50;73.94;102316.28;5059661;28;20025;-74
2022/07/12 03:05:41;;;;;;;3.88;1.83;;;;;;;14.48;73.40;102307.59;5063632;28;20438;-74
2022/07/12 03:08:08;;;;;;;3.05;1.92;;;;;;;14.44;74.09;102320.78;5058172;28;20017;-74
2022/07/12 03:10:34;;;;;;;2.10;1.63;;;;;;;14.41;74.14;102317.31;5058359;28;20479;-74
2022/07/12 03:12:59;;;;;;;3.65;2.20;;;;;;;14.41;73.12;102306.00;5061300;28;20055;-74
2022/07/12 03:15:25;;;;;;;3.28;2.10;;;;;;;14.40;73.20;102314.75;5043882;28;20025;-74
2022/07/12 03:17:50;;;;;;;2.60;2.00;;;;;;;14.36;73.62;102319.16;5056167;28;20028;-74
2022/07/12 03:20:16;;;;;;;2.72;2.28;;;;;;;14.35;74.17;102317.41;5053982;28;20404;-74
2022/07/12 03:22:43;;;;;;;2.53;2.15;;;;;;;14.36;73.55;102313.06;5059111;28;20082;-74
2022/07/12 03:25:09;;;;;;;2.15;1.90;;;;;;;14.35;73.56;102312.19;5058727;28;20032;-74
2022/07/12 03:27:34;;;;;;;2.15;1.95;;;;;;;14.32;73.62;102309.66;5057743;28;20379;-73
2022/07/12 03:30:00;;;;;;;2.05;1.80;;;;;;;14.28;73.56;102305.34;5058402;28;20029;-73
2022/07/12 03:32:26;;;;;;;2.10;1.90;;;;;;;14.24;74.19;102311.53;5057938;28;20041;-73
2022/07/12 03:34:51;;;;;;;2.30;2.00;;;;;;;14.23;73.24;102307.19;5059119;28;20032;-74
2022/07/12 03:37:16;;;;;;;2.88;1.77;;;;;;;14.21;73.70;102315.06;5060786;28;20039;-74
2022/07/12 03:39:41;;;;;;;2.55;1.80;;;;;;;14.22;73.33;102310.69;5059420;28;20111;-73
2022/07/12 03:42:07;;;;;;;3.05;2.00;;;;;;;14.21;72.94;102304.59;5058527;28;20044;-74
2022/07/12 03:44:33;;;;;;;1.98;1.60;;;;;;;14.17;73.34;102304.69;5061211;28;20038;-74
2022/07/12 03:46:59;;;;;;;1.73;1.40;;;;;;;14.12;73.73;102304.75;5060800;28;20021;-73
2022/07/12 03:49:24;;;;;;;2.13;1.50;;;;;;;14.08;74.01;102303.94;5062108;28;20040;-74
2022/07/12 03:51:49;;;;;;;2.20;1.55;;;;;;;14.05;73.97;102303.97;5070802;28;20146;-74
2022/07/12 03:54:15;;;;;;;1.85;1.50;;;;;;;14.06;74.13;102310.09;5060533;28;20063;-73
2022/07/12 03:59:24;;;;;;;1.70;1.60;;;;;;;14.06;73.39;102310.94;5059786;28;20098;-74
2022/07/12 04:01:49;;;;;;;2.10;1.55;;;;;;;14.06;73.43;102320.56;5062909;28;20032;-73
2022/07/12 04:04:14;;;;;;;2.40;1.88;;;;;;;14.05;73.39;102309.22;5057286;28;20507;-74
2022/07/12 04:06:40;;;;;;;1.70;1.60;;;;;;;14.04;74.08;102312.72;5063191;28;20032;-73
2022/07/12 04:09:06;;;;;;;1.85;1.50;;;;;;;14.03;73.37;102311.00;5061843;28;20037;-73
2022/07/12 04:11:32;;;;;;;2.10;1.38;;;;;;;14.03;73.22;102311.00;5055821;28;20498;-74
2022/07/12 04:13:57;;;;;;;1.50;1.40;;;;;;;14.03;73.38;102307.53;5063896;28;20031;-73
2022/07/12 04:16:23;;;;;;;1.60;1.10;;;;;;;14.03;73.39;102304.91;5065724;28;20100;-73
2022/07/12 04:18:48;;;;;;;1.38;1.27;;;;;;;14.01;73.91;102302.31;5067080;28;20102;-73
2022/07/12 04:21:13;;;;;;;1.50;1.40;;;;;;;14.01;74.41;102304.91;5048280;28;20047;-73
2022/07/12 04:23:39;;;;;;;1.30;1.20;;;;;;;13.99;74.21;102304.09;5059766;28;20527;-73
2022/07/12 04:26:04;;;;;;;1.55;1.40;;;;;;;14.02;74.66;102308.41;5059505;28;20376;-74
2022/07/12 04:28:29;;;;;;;1.45;1.30;;;;;;;14.03;75.04;102312.75;5063692;28;20037;-74
2022/07/12 04:30:54;;;;;;;1.60;1.50;;;;;;;14.04;74.42;102307.47;5066995;28;20036;-74
2022/07/12 04:33:20;;;;;;;2.28;1.70;;;;;;;14.03;74.77;102311.00;5047185;28;20043;-74
2022/07/12 04:35:45;;;;;;;6.10;1.85;;;;;;;14.05;74.95;102309.22;5066651;28;20048;-74
2022/07/12 04:38:11;;;;;;;2.28;1.50;;;;;;;14.07;74.77;102317.91;5061433;28;20025;-74
2022/07/12 04:40:36;;;;;;;2.53;1.50;;;;;;;14.10;74.80;102317.88;5059014;28;20060;-74
2022/07/12 04:43:01;;;;;;;3.03;1.52;;;;;;;14.13;74.61;102329.19;5063912;28;20032;-73
2022/07/12 04:45:26;;;;;;;1.60;1.50;;;;;;;14.16;75.84;102332.59;5062738;28;20423;-74
2022/07/12 04:47:52;;;;;;;2.15;1.95;;;;;;;14.20;76.09;102333.41;5070715;28;20029;-74
2022/07/12 04:50:17;;;;;;;3.90;2.22;;;;;;;14.24;76.54;102329.84;5063142;28;20033;-74
2022/07/12 04:52:42;;;;;;;3.63;1.80;;;;;;;14.27;76.11;102329.78;5062687;28;20127;-73
2022/07/12 04:55:08;;;;;;;2.10;1.80;;;;;;;14.32;75.84;102327.97;5057463;28;20060;-73
2022/07/12 04:57:34;;;;;;;2.50;2.20;;;;;;;14.39;76.07;102318.25;5058549;28;20065;-74
2022/07/12 04:59:59;;;;;;;2.40;2.20;;;;;;;14.45;76.71;102318.13;5068141;28;20093;-74
2022/07/12 05:02:25;;;;;;;2.70;2.50;;;;;;;14.52;76.78;102318.88;5060749;28;20434;-74
2022/07/12 05:04:50;;;;;;;2.55;2.28;;;;;;;14.59;76.53;102325.72;5048598;28;20430;-73
2022/07/12 05:07:16;;;;;;;3.13;2.33;;;;;;;14.66;76.82;102324.72;5070449;28;20028;-73
2022/07/12 05:09:41;;;;;;;2.75;2.50;;;;;;;14.74;76.99;102323.75;5065401;28;20423;-74
2022/07/12 05:12:06;;;;;;;3.58;2.97;;;;;;;14.79;77.85;102327.13;5063965;28;20033;-74
2022/07/12 05:14:32;;;;;;;5.70;4.20;;;;;;;14.86;78.35;102332.22;5063233;28;20032;-73
2022/07/12 05:16:57;;;;;;;8.18;4.90;;;;;;;14.94;79.14;102328.59;5061067;28;20029;-73
2022/07/12 05:19:23;;;;;;;5.25;4.75;;;;;;;15.02;79.85;102324.94;5064605;28;20029;-74
2022/07/12 05:21:49;;;;;;;5.47;4.90;;;;;;;15.12;80.34;102330.81;5068121;28;20415;-73
2022/07/12 05:24:14;;;;;;;6.18;5.57;;;;;;;15.22;80.19;102349.84;5066896;28;20398;-74
2022/07/12 05:26:40;;;;;;;5.75;5.25;;;;;;;15.30;80.25;102342.69;5063835;28;20036;-74
2022/07/12 05:29:05;;;;;;;6.07;5.47;;;;;;;15.39;80.68;102353.84;5062186;28;20032;-73
2022/07/12 05:31:30;;;;;;;5.93;5.30;;;;;;;15.48;80.61;102344.03;5063533;28;20054;-74
2022/07/12 05:33:55;;;;;;;5.88;5.18;;;;;;;15.57;80.89;102358.69;5063664;28;20390;-73
2022/07/12 05:36:21;;;;;;;7.05;5.28;;;;;;;15.63;80.55;102352.44;5064808;28;20024;-74
2022/07/12 05:38:47;;;;;;;5.88;5.28;;;;;;;15.69;80.83;102360.19;5067374;28;20028;-74
2022/07/12 05:41:12;;;;;;;6.15;5.43;;;;;;;15.77;80.78;102360.88;5060751;28;20147;-75
2022/07/12 05:43:38;;;;;;;7.95;5.70;;;;;;;15.86;80.73;102349.34;5060501;28;20147;-74
2022/07/12 05:46:04;;;;;;;8.50;5.28;;;;;;;15.95;81.11;102357.88;5068113;28;20475;-74
2022/07/12 05:48:29;;;;;;;7.05;6.10;;;;;;;16.03;81.18;102369.06;5060143;28;20073;-73
2022/07/12 05:50:54;;;;;;;9.98;6.10;;;;;;;16.12;81.16;102376.72;5061969;28;20119;-73
2022/07/12 05:53:23;;;;;;;8.27;5.93;;;;;;;16.21;81.23;102376.50;5056376;28;20032;-74
2022/07/12 05:55:52;;;;;;;7.97;5.57;;;;;;;16.31;80.94;102382.34;5062931;28;20040;-74
2022/07/12 05:58:19;;;;;;;7.35;5.78;;;;;;;16.38;81.31;102385.72;5057591;28;20107;-74
2022/07/12 06:00:45;;;;;;;6.05;5.35;;;;;;;16.43;80.89;102385.59;5058086;28;20026;-74
2022/07/12 06:03:11;;;;;;;5.78;5.18;;;;;;;16.47;80.77;102395.97;5064353;28;20383;-74
2022/07/12 06:05:36;;;;;;;6.25;5.38;;;;;;;16.52;80.96;102395.84;5065040;28;20038;-74
2022/07/12 06:08:02;;;;;;;5.80;5.20;;;;;;;16.57;80.53;102393.97;5057964;28;20111;-74
2022/07/12 06:10:27;;;;;;;6.72;5.15;;;;;;;16.65;81.00;102397.25;5064165;28;20047;-74
2022/07/12 06:12:52;;;;;;;6.13;5.53;;;;;;;16.74;80.63;102404.03;5064359;28;20463;-74
2022/07/12 06:15:18;;;;;;;6.63;5.40;;;;;;;16.84;80.40;102402.88;5061281;28;20525;-74
2022/07/12 06:17:43;;;;;;;7.15;5.43;;;;;;;16.94;79.99;102407.88;5056509;28;20059;-74
2022/07/12 06:20:09;;;;;;;6.18;5.57;;;;;;;17.05;80.27;102407.63;5060891;28;20102;-74
2022/07/12 06:22:35;;;;;;;7.60;5.60;;;;;;;17.13;79.80;102411.75;5061948;28;20032;-74
2022/07/12 06:25:00;;;;;;;6.22;5.63;;;;;;;17.23;79.86;102415.00;5063139;28;20025;-74
2022/07/12 06:27:26;;;;;;;6.63;5.93;;;;;;;17.28;79.37;102413.09;5054368;28;20016;-74
2022/07/12 06:29:52;;;;;;;6.70;6.00;;;;;;;17.34;79.43;102412.06;5060316;28;20035;-74
2022/07/12 06:32:18;;;;;;;6.53;5.85;;;;;;;17.40;79.21;102417.16;5055559;28;20040;-74
2022/07/12 06:34:44;;;;;;;9.30;5.80;;;;;;;17.45;79.12;102415.22;5028826;28;20013;-74
2022/07/12 06:37:09;;;;;;;7.68;5.55;;;;;;;17.53;79.55;102406.25;5063242;28;20029;-74
2022/07/12 06:39:36;;;;;;;7.57;6.78;;;;;;;17.59;79.60;102406.94;5062294;28;20024;-74
2022/07/12 06:42:03;;;;;;;7.22;6.53;;;;;;;17.66;79.40;102396.22;5058133;28;20037;-74
2022/07/12 06:44:30;;;;;;;7.63;6.43;;;;;;;17.71;78.59;102400.44;5056254;28;20040;-74
2022/07/12 06:46:56;;;;;;;7.50;6.70;;;;;;;17.77;78.42;102398.50;5056551;28;20096;-74
2022/07/12 06:49:21;;;;;;;7.22;6.50;;;;;;;17.81;78.45;102389.59;5058036;28;20025;-73
2022/07/12 06:51:46;;;;;;;6.53;5.93;;;;;;;17.86;78.49;102403.50;5039561;28;20376;-74
2022/07/12 06:54:11;;;;;;;7.25;6.55;;;;;;;17.93;78.62;102397.13;5059539;28;20024;-74
2022/07/12 06:56:37;;;;;;;7.30;6.53;;;;;;;17.99;78.46;102407.47;5070293;28;20048;-74
2022/07/12 06:59:02;;;;;;;7.60;6.82;;;;;;;18.07;77.93;102395.84;5067539;28;20077;-74
2022/07/12 07:01:27;;;;;;;7.63;6.88;;;;;;;18.15;78.61;102401.72;5064256;28;20387;-75
2022/07/12 07:03:53;;;;;;;8.02;7.22;;;;;;;18.26;78.46;102407.50;5065614;28;20032;-75
2022/07/12 07:06:18;;;;;;;7.78;6.97;;;;;;;18.33;78.06;102395.84;5041466;28;20031;-75
2022/07/12 07:08:44;;;;;;;8.40;7.13;;;;;;;18.42;78.00;102399.94;5069099;28;20379;-75
2022/07/12 07:11:09;;;;;;;7.57;6.80;;;;;;;18.51;77.39;102396.13;5052910;28;20028;-74
2022/07/12 07:13:35;;;;;;;7.32;6.63;;;;;;;18.61;77.20;102408.09;5066528;28;20582;-75
2022/07/12 07:16:00;;;;;;;7.53;6.72;;;;;;;18.72;77.04;102396.28;5062256;28;20032;-75
2022/07/12 07:18:25;;;;;;;7.50;6.70;;;;;;;18.78;76.13;102389.03;5058141;28;20055;-75
2022/07/12 07:20:50;;;;;;;8.45;7.18;;;;;;;18.86;75.24;102396.66;5064692;28;20079;-75
2022/07/12 07:23:16;;;;;;;7.95;6.68;;;;;;;18.91;74.82;102399.13;5064620;28;20024;-74
2022/07/12 07:25:43;;;;;;;8.48;6.88;;;;;;;18.97;74.16;102396.31;5069691;28;20058;-75
2022/07/12 07:28:08;;;;;;;7.82;6.78;;;;;;;19.04;74.83;102395.19;5071874;28;20021;-74
2022/07/12 07:30:52;;;;;;;7.93;6.38;;;;;;;19.10;74.11;102394.09;5050592;28;20031;-74
2022/07/12 07:33:26;;;;;;;7.68;5.82;;;;;;;19.15;73.76;102392.13;5068734;28;20085;-74
2022/07/12 07:35:52;;;;;;;6.93;5.30;;;;;;;19.18;72.08;102407.00;5061615;28;20475;-74
2022/07/12 07:38:18;;;;;;;6.78;6.00;;;;;;;19.20;71.75;102403.38;5061042;28;20054;-75
2022/07/12 07:40:44;;;;;;;6.32;5.70;;;;;;;19.23;72.33;102400.63;5065197;28;20499;-75
2022/07/12 07:43:10;;;;;;;6.72;5.65;;;;;;;19.26;72.15;102389.94;5063718;28;20463;-75
2022/07/12 07:45:36;;;;;;;6.63;5.95;;;;;;;19.33;72.70;102394.97;5065635;28;20142;-74
2022/07/12 07:48:01;;;;;;;7.15;6.40;;;;;;;19.39;73.08;102389.47;5062007;28;20111;-75
2022/07/12 07:50:27;;;;;;;6.32;5.72;;;;;;;19.50;73.22;102389.06;5043125;28;20108;-74
2022/07/12 07:52:53;;;;;;;8.00;6.43;;;;;;;19.58;72.88;102394.06;5065383;28;20052;-74
2022/07/12 07:55:18;;;;;;;7.70;6.85;;;;;;;19.67;72.36;102399.84;5062916;28;20020;-74
2022/07/12 07:57:44;;;;;;;8.20;7.40;;;;;;;19.76;71.88;102398.59;5058252;28;20055;-73
2022/07/12 08:00:10;;;;;;;8.45;7.30;;;;;;;19.83;71.32;102388.66;5057584;28;20055;-73
2022/07/12 08:02:35;;;;;;;8.27;6.85;;;;;;;19.94;71.95;102393.53;5055863;28;20085;-73
2022/07/12 08:05:01;;;;;;;7.63;6.82;;;;;;;20.02;71.23;102394.06;5060522;28;20041;-73
2022/07/12 08:07:26;;;;;;;7.90;6.70;;;;;;;20.11;71.16;102392.81;5055808;28;20041;-73
2022/07/12 08:09:51;;;;;;;7.15;6.45;;;;;;;20.20;70.78;102391.59;5057128;28;20040;-73
2022/07/12 08:12:17;;;;;;;7.75;6.50;;;;;;;20.29;70.98;102391.22;5058839;28;20062;-75
2022/07/12 08:14:42;;;;;;;7.28;6.57;;;;;;;20.34;69.19;102394.50;5055936;28;20028;-76
2022/07/12 08:17:07;;;;;;;8.35;6.55;;;;;;;20.40;68.61;102393.41;5055351;28;20425;-73
2022/07/12 08:19:32;;;;;;;9.02;6.78;;;;;;;20.45;68.61;102392.28;5056733;28;20024;-74
2022/07/12 08:21:58;;;;;;;9.05;6.47;;;;;;;20.51;67.52;102395.56;5057162;28;20056;-74
2022/07/12 08:24:23;;;;;;;7.55;6.78;;;;;;;20.58;68.15;102391.75;5063797;28;20036;-74
2022/07/12 08:26:49;;;;;;;7.53;6.68;;;;;;;20.65;67.17;102390.56;5059589;28;20472;-74
2022/07/12 08:29:15;;;;;;;7.43;6.43;;;;;;;20.71;66.56;102390.28;5061255;28;20036;-74
2022/07/12 08:31:40;;;;;;;7.25;6.35;;;;;;;20.77;66.13;102386.53;5053958;28;20047;-74
2022/07/12 08:34:05;;;;;;;7.30;6.50;;;;;;;20.85;66.66;102391.47;5055646;28;20090;-74
2022/07/12 08:36:31;;;;;;;6.72;6.03;;;;;;;20.93;67.83;102392.00;5059638;28;20023;-74
2022/07/12 08:38:56;;;;;;;10.77;6.80;;;;;;;21.00;66.25;102393.47;5055904;28;20028;-74
2022/07/12 08:41:21;;;;;;;9.00;6.68;;;;;;;21.07;65.53;102401.97;5054176;28;20138;-75
2022/07/12 08:43:47;;;;;;;8.68;6.72;;;;;;;21.12;65.28;102396.47;5054959;28;20025;-75
2022/07/12 08:46:14;;;;;;;8.50;6.38;;;;;;;21.15;64.56;102401.63;5057354;28;20460;-75
2022/07/12 08:48:41;;;;;;;8.93;6.20;;;;;;;21.19;66.45;102405.81;5052312;28;20017;-78
2022/07/12 08:51:18;;;;;;;6.20;5.32;;;;;;;21.17;64.35;102400.63;5054935;28;20039;-73
2022/07/12 08:53:43;;;;;;;6.85;5.60;;;;;;;21.18;63.79;102406.78;5050655;28;20028;-74
2022/07/12 08:56:30;;;;;;;6.68;5.55;;;;;;;21.21;65.00;102406.63;5046000;28;20036;-74
2022/07/12 08:59:16;;;;;;;6.93;5.55;;;;;;;21.25;65.67;102412.66;5053696;28;20056;-74
2022/07/12 09:01:48;;;;;;;6.65;5.47;;;;;;;21.25;63.50;102410.84;5054457;28;20043;-74
2022/07/12 09:04:25;;;;;;;6.82;5.75;;;;;;;21.27;63.61;102411.63;5031447;28;20029;-73
2022/07/12 09:06:51;;;;;;;8.20;6.32;;;;;;;21.24;62.07;102422.34;5044462;28;20237;-73
2022/07/12 09:09:35;;;;;;;9.40;6.93;;;;;;;21.21;63.15;102418.06;5047048;28;20037;-73
2022/07/12 09:12:00;;;;;;;7.88;6.68;;;;;;;21.18;62.69;102418.22;5048536;28;21569;-73
2022/07/12 09:14:30;;;;;;;7.78;6.53;;;;;;;21.20;62.19;102418.13;5050489;28;20028;-74
2022/07/12 09:17:09;;;;;;;8.25;6.75;;;;;;;21.22;63.14;102413.63;5050991;28;20042;-73
2022/07/12 09:19:35;;;;;;;8.73;6.75;;;;;;;21.26;61.57;102415.22;5045248;28;20056;-74
2022/07/12 09:22:00;;;;;;;7.10;6.40;;;;;;;21.29;61.80;102412.44;5048116;28;20115;-74
2022/07/12 09:24:27;;;;;;;8.77;6.22;;;;;;;21.33;61.62;102411.38;5045597;28;20037;-75
2022/07/12 09:26:58;;;;;;;7.93;6.40;;;;;;;21.42;63.12;102414.50;5047232;28;20036;-74
2022/07/12 09:29:25;;;;;;;8.55;7.18;;;;;;;21.46;61.69;102405.50;5031479;28;20032;-73
2022/07/12 09:37:20;;;;;;;9.65;6.80;;;;;;;21.62;60.45;102403.84;5054721;28;20123;-74
2022/07/12 09:39:47;;;;;;;7.25;6.53;;;;;;;21.68;61.82;102406.22;5051698;28;20136;-76
2022/07/12 09:42:12;;;;;;;7.45;6.70;;;;;;;21.71;60.78;102402.56;5046939;28;20112;-74
2022/07/12 09:44:39;;;;;;;6.95;6.03;;;;;;;21.76;61.15;102405.84;5050263;28;20123;-74
2022/07/12 09:47:09;;;;;;;7.35;6.57;;;;;;;21.81;60.77;102402.97;5046355;28;20028;-74
2022/07/12 09:49:35;;;;;;;7.78;6.10;;;;;;;21.81;59.32;102401.16;5048842;28;20463;-74
2022/07/12 09:52:03;;;;;;;6.32;5.65;;;;;;;21.84;60.13;102400.19;5046701;28;20029;-75
2022/07/12 09:54:30;;;;;;;5.60;4.78;;;;;;;21.86;59.81;102394.78;5046657;28;20029;-76
2022/07/12 09:57:00;;;;;;;6.53;5.22;;;;;;;21.87;59.65;102389.41;5051788;28;20032;-75
2022/07/12 09:59:28;;;;;;;6.15;4.75;;;;;;;21.88;58.85;102385.81;5051472;28;20051;-75
2022/07/12 10:01:59;;;;;;;5.43;4.53;;;;;;;21.91;58.29;102388.34;5056429;28;20107;-75
2022/07/12 10:04:29;;;;;;;5.50;4.40;;;;;;;21.95;57.85;102381.97;5054007;28;20404;-75
2022/07/12 10:06:54;;;;;;;4.87;4.00;;;;;;;22.03;57.78;102380.72;5059192;28;20035;-75
2022/07/12 10:09:20;;;;;;;5.35;4.40;;;;;;;22.12;59.39;102383.75;5059199;28;20024;-74
2022/07/12 10:11:46;;;;;;;6.30;4.72;;;;;;;22.21;58.35;102382.41;5061466;28;20562;-75
2022/07/12 10:14:12;;;;;;;4.72;3.78;;;;;;;22.27;55.69;102387.44;5062614;28;20494;-75
2022/07/12 10:16:40;;;;;;;5.57;3.88;;;;;;;22.33;57.96;102382.75;5059093;28;20050;-75
2022/07/12 10:19:32;;;;;;;4.55;3.55;;;;;;;22.38;57.55;102383.34;5058938;28;20036;-74
2022/07/12 10:22:00;;;;;;;5.75;5.03;;;;;;;22.44;58.61;102377.78;5061248;28;20520;-75
2022/07/12 10:24:51;;;;;;;6.07;5.38;;;;;;;22.51;59.54;102379.19;5059482;28;20020;-75
2022/07/12 10:27:17;;;;;;;6.45;4.57;;;;;;;22.57;56.34;102368.25;5052188;28;20110;-75
2022/07/12 10:29:47;;;;;;;5.68;4.30;;;;;;;22.65;57.51;102365.19;5057385;28;20037;-75
2022/07/12 10:32:35;;;;;;;5.50;4.43;;;;;;;22.74;59.17;102370.00;5059953;28;20033;-75
2022/07/12 10:35:12;;;;;;;4.53;3.78;;;;;;;22.83;56.94;102368.66;5063425;28;20643;-73
2022/07/12 10:37:38;;;;;;;4.97;3.70;;;;;;;22.89;56.09;102365.66;5059265;28;20119;-72
2022/07/12 10:40:18;;;;;;;4.43;4.00;;;;;;;22.92;56.19;102374.41;5061375;28;20123;-73
2022/07/12 10:43:04;;;;;;;5.55;4.90;;;;;;;22.96;56.93;102371.53;5059621;28;20531;-73
2022/07/12 10:45:40;;;;;;;6.63;4.97;;;;;;;22.99;56.43;102367.84;5060894;28;20375;-73
2022/07/12 10:48:07;;;;;;;7.30;5.03;;;;;;;23.00;53.56;102357.13;5062335;28;20030;-73
2022/07/12 10:50:45;;;;;;;6.10;4.53;;;;;;;23.08;56.22;102362.00;5059939;28;20062;-73
2022/07/12 10:53:19;;;;;;;4.28;3.83;;;;;;;23.18;55.46;102365.88;5059724;28;20110;-75
2022/07/12 10:56:03;;;;;;;4.85;3.17;;;;;;;23.24;56.04;102355.88;5057230;28;20024;-75
2022/07/12 10:58:46;;;;;;;4.18;3.03;;;;;;;23.26;54.18;102364.63;5055317;28;20032;-73
2022/07/12 11:01:15;;;;;;;5.78;4.20;;;;;;;23.27;54.22;102361.03;5057115;28;20033;-75
2022/07/12 11:03:45;;;;;;;4.78;3.88;;;;;;;23.28;53.58;102365.41;5054332;28;20033;-75
2022/07/12 11:06:22;;;;;;;4.68;3.20;;;;;;;23.29;52.84;102365.34;5057480;28;20040;-75
2022/07/12 11:08:59;;;;;;;4.93;3.40;;;;;;;23.35;54.15;102372.09;5054423;28;20317;-73
2022/07/12 11:11:30;;;;;;;5.28;4.22;;;;;;;23.43;54.07;102367.19;5058683;28;20040;-73
2022/07/12 11:13:56;;;;;;;4.95;4.18;;;;;;;23.50;53.49;102370.34;5054456;28;20043;-73
2022/07/12 11:16:23;;;;;;;5.45;3.75;;;;;;;23.56;51.79;102370.03;5056074;28;20029;-73
2022/07/12 11:18:49;;;;;;;4.47;3.85;;;;;;;23.64;52.02;102372.25;5057840;28;20037;-73
2022/07/12 11:21:14;;;;;;;4.97;3.10;;;;;;;23.72;53.02;102364.69;5054571;28;20028;-73
2022/07/12 11:23:42;;;;;;;6.03;3.33;;;;;;;23.83;52.86;102371.19;5056108;28;20035;-73
2022/07/12 11:26:10;;;;;;;4.20;3.50;;;;;;;23.91;53.12;102371.59;5055518;28;20171;-73
2022/07/12 11:28:36;;;;;;;3.92;3.22;;;;;;;23.98;51.44;102372.97;5058919;28;20061;-73
2022/07/12 11:31:08;;;;;;;3.60;3.00;;;;;;;24.06;51.94;102360.09;5056252;28;20487;-73